createdAt,value
2023-01-25T00:00:30.519Z,96051.84
2023-01-25T00:02:57.568Z,96045.84
2023-01-25T00:05:25.108Z,96035.66
2023-01-25T00:07:52.168Z,96027.84
2023-01-25T00:10:19.296Z,96034.16
2023-01-25T00:12:46.016Z,96040.72
2023-01-25T00:15:13.443Z,96052.28
2023-01-25T00:17:40.574Z,96052.16
2023-01-25T00:20:08.257Z,96040.41
2023-01-25T00:22:35.161Z,96042.19
2023-01-25T00:25:01.952Z,96056.31
2023-01-25T00:27:28.996Z,96044.84
2023-01-25T00:29:55.900Z,96049.53
2023-01-25T00:32:23.652Z,96041.25
2023-01-25T00:34:52.212Z,96027.00
2023-01-25T00:37:24.302Z,96047.41
2023-01-25T00:39:52.093Z,96053.56
2023-01-25T00:42:20.041Z,96073.78
2023-01-25T00:44:48.746Z,96052.94
2023-01-25T00:47:16.106Z,96042.63
2023-01-25T00:49:44.361Z,96047.53
2023-01-25T00:52:12.015Z,96053.38
2023-01-25T00:54:39.341Z,96042.97
2023-01-25T00:57:07.235Z,96059.91
2023-01-25T00:59:34.695Z,96059.03
2023-01-25T01:02:02.843Z,96044.53
2023-01-25T01:04:30.955Z,96040.53
2023-01-25T01:06:57.734Z,96044.66
2023-01-25T01:09:24.689Z,96045.00
2023-01-25T01:11:53.013Z,96047.13
2023-01-25T01:14:21.197Z,96019.94
2023-01-25T01:16:48.293Z,96035.91
2023-01-25T01:19:15.768Z,96048.28
2023-01-25T01:21:43.056Z,96048.56
2023-01-25T01:24:11.208Z,96040.47
2023-01-25T01:26:38.192Z,96049.75
2023-01-25T01:29:05.188Z,96059.78
2023-01-25T01:31:32.422Z,96054.69
2023-01-25T01:34:12.898Z,96055.13
2023-01-25T01:36:39.844Z,96060.88
2023-01-25T01:39:06.627Z,96061.66
2023-01-25T01:41:33.521Z,96029.59
2023-01-25T01:44:00.882Z,96027.03
2023-01-25T01:46:31.982Z,96029.34
2023-01-25T01:49:06.821Z,96032.44
2023-01-25T01:51:41.077Z,96031.72
2023-01-25T01:54:20.840Z,96018.78
2023-01-25T01:57:00.903Z,96026.41
2023-01-25T01:59:34.547Z,96021.66
2023-01-25T02:02:01.620Z,96044.69
2023-01-25T02:04:30.241Z,96035.94
2023-01-25T02:07:04.849Z,96021.84
2023-01-25T02:09:35.319Z,96031.06
2023-01-25T02:12:02.922Z,96025.84
2023-01-25T02:14:31.880Z,96034.84
2023-01-25T02:17:00.199Z,96039.09
2023-01-25T02:19:30.161Z,96030.41
2023-01-25T02:21:59.051Z,96024.94
2023-01-25T02:24:33.260Z,96030.06
2023-01-25T02:27:00.219Z,96025.50
2023-01-25T02:29:30.091Z,96013.34
2023-01-25T02:32:04.837Z,96017.53
2023-01-25T02:34:31.806Z,96011.00
2023-01-25T02:36:59.354Z,96014.56
2023-01-25T02:39:28.096Z,96028.56
2023-01-25T02:41:55.365Z,96038.69
2023-01-25T02:44:33.444Z,96017.22
2023-01-25T02:47:03.937Z,96007.66
2023-01-25T02:49:30.708Z,96000.28
2023-01-25T02:51:57.812Z,95996.38
2023-01-25T02:54:26.612Z,95992.72
2023-01-25T02:56:53.768Z,96002.31
2023-01-25T02:59:22.735Z,96011.25
2023-01-25T03:01:52.841Z,96011.00
2023-01-25T03:04:20.245Z,96013.34
2023-01-25T03:06:47.967Z,96004.53
2023-01-25T03:09:15.586Z,95994.91
2023-01-25T03:11:46.552Z,96000.19
2023-01-25T03:14:13.527Z,95987.78
2023-01-25T03:16:40.332Z,95979.09
2023-01-25T03:19:07.638Z,95979.19
2023-01-25T03:21:34.510Z,95977.47
2023-01-25T03:24:02.248Z,95988.03
2023-01-25T03:26:56.019Z,96000.38
2023-01-25T03:29:28.295Z,95993.38
2023-01-25T03:31:55.180Z,95981.00
2023-01-25T03:34:22.536Z,95994.78
2023-01-25T03:36:49.386Z,95987.09
2023-01-25T03:39:16.105Z,96004.38
2023-01-25T03:41:43.519Z,96010.59
2023-01-25T03:44:13.176Z,96013.59
2023-01-25T03:46:42.518Z,95983.47
2023-01-25T03:49:10.475Z,95984.63
2023-01-25T03:51:38.154Z,96002.38
2023-01-25T03:54:05.803Z,95996.16
2023-01-25T03:56:35.029Z,95984.44
2023-01-25T03:59:27.919Z,95999.41
2023-01-25T04:01:55.649Z,95994.81
2023-01-25T04:04:24.270Z,95985.00
2023-01-25T04:06:51.357Z,95989.94
2023-01-25T04:09:18.124Z,95997.75
2023-01-25T04:11:51.148Z,95983.13
2023-01-25T04:14:25.537Z,95971.81
2023-01-25T04:17:05.732Z,95963.13
2023-01-25T04:19:37.388Z,95985.63
2023-01-25T04:22:06.589Z,95976.84
2023-01-25T04:24:37.188Z,95990.28
2023-01-25T04:27:06.036Z,95987.72
2023-01-25T04:29:41.797Z,96001.94
2023-01-25T04:32:14.243Z,95970.53
2023-01-25T04:34:41.421Z,95970.84
2023-01-25T04:37:13.091Z,95945.88
2023-01-25T04:39:50.403Z,95940.31
2023-01-25T04:42:17.641Z,95929.72
2023-01-25T04:44:48.205Z,95923.25
2023-01-25T04:47:15.071Z,95901.41
2023-01-25T04:49:42.521Z,95904.91
2023-01-25T04:52:10.009Z,95911.84
2023-01-25T04:54:36.841Z,95925.44
2023-01-25T04:57:04.340Z,95947.16
2023-01-25T04:59:31.466Z,95928.59
2023-01-25T05:01:58.197Z,95911.13
2023-01-25T05:04:25.176Z,95909.66
2023-01-25T05:06:52.146Z,95916.56
2023-01-25T05:09:20.182Z,95891.03
2023-01-25T05:11:47.795Z,95890.09
2023-01-25T05:14:25.508Z,95915.03
2023-01-25T05:16:52.365Z,95917.72
2023-01-25T05:19:19.148Z,95919.84
2023-01-25T05:22:00.401Z,95909.66
2023-01-25T05:24:34.043Z,95908.88
2023-01-25T05:27:04.669Z,95908.03
2023-01-25T05:29:57.979Z,95916.91
2023-01-25T05:32:37.855Z,95919.72
2023-01-25T05:35:05.987Z,95909.47
2023-01-25T05:37:33.331Z,95918.53
2023-01-25T05:40:08.535Z,95917.34
2023-01-25T05:42:38.028Z,95901.72
2023-01-25T05:45:09.261Z,95904.13
2023-01-25T05:47:38.949Z,95890.53
2023-01-25T05:50:08.664Z,95892.75
2023-01-25T05:52:56.362Z,95911.06
2023-01-25T05:55:23.884Z,95917.19
2023-01-25T05:57:56.213Z,95914.72
2023-01-25T06:00:23.355Z,95896.66
2023-01-25T06:02:50.266Z,95912.56
2023-01-25T06:05:21.923Z,95907.31
2023-01-25T06:07:49.290Z,95912.66
2023-01-25T06:10:17.581Z,95894.28
2023-01-25T06:12:47.218Z,95886.78
2023-01-25T06:15:14.182Z,95880.03
2023-01-25T06:17:41.002Z,95886.28
2023-01-25T06:20:27.982Z,95887.22
2023-01-25T06:23:07.011Z,95883.03
2023-01-25T06:25:33.770Z,95867.84
2023-01-25T06:28:00.526Z,95890.63
2023-01-25T06:30:27.680Z,95905.66
2023-01-25T06:32:54.559Z,95889.16
2023-01-25T06:35:21.272Z,95887.38
2023-01-25T06:37:48.172Z,95888.16
2023-01-25T06:40:15.220Z,95887.75
2023-01-25T06:42:42.001Z,95882.13
2023-01-25T06:45:09.874Z,95898.94
2023-01-25T06:47:36.975Z,95896.31
2023-01-25T06:50:03.989Z,95906.22
2023-01-25T06:52:31.894Z,95916.94
2023-01-25T06:54:58.893Z,95916.56
2023-01-25T06:57:25.771Z,95892.94
2023-01-25T06:59:52.761Z,95889.44
2023-01-25T07:02:19.558Z,95868.09
2023-01-25T07:04:46.209Z,95864.75
2023-01-25T07:07:13.107Z,95851.56
2023-01-25T07:09:39.824Z,95840.50
2023-01-25T07:12:07.322Z,95861.47
2023-01-25T07:14:34.209Z,95856.63
2023-01-25T07:17:03.013Z,95872.97
2023-01-25T07:19:30.626Z,95867.31
2023-01-25T07:21:57.371Z,95860.28
2023-01-25T07:24:27.336Z,95874.06
2023-01-25T07:26:54.091Z,95859.47
2023-01-25T07:29:21.978Z,95880.50
2023-01-25T07:31:49.602Z,95847.97
2023-01-25T07:34:16.329Z,95850.69
2023-01-25T07:36:47.044Z,95839.88
2023-01-25T07:39:14.440Z,95845.47
2023-01-25T07:41:41.354Z,95833.03
2023-01-25T07:44:13.261Z,95832.25
2023-01-25T07:46:45.067Z,95848.06
2023-01-25T07:49:11.734Z,95848.34
2023-01-25T07:51:38.424Z,95823.19
2023-01-25T07:54:05.407Z,95851.03
2023-01-25T07:56:34.599Z,95868.41
2023-01-25T07:59:08.280Z,95854.97
2023-01-25T08:01:37.122Z,95854.97
2023-01-25T08:04:05.050Z,95848.59
2023-01-25T08:06:38.881Z,95869.41
2023-01-25T08:09:14.720Z,95859.84
2023-01-25T08:11:42.540Z,95842.50
2023-01-25T08:14:09.698Z,95851.09
2023-01-25T08:16:36.519Z,95844.03
2023-01-25T08:19:04.573Z,95867.81
2023-01-25T08:21:34.412Z,95849.03
2023-01-25T08:24:04.470Z,95833.47
2023-01-25T08:26:31.651Z,95809.28
2023-01-25T08:28:58.844Z,95824.72
2023-01-25T08:31:36.110Z,95836.34
2023-01-25T08:34:03.931Z,95834.19
2023-01-25T08:36:30.761Z,95842.97
2023-01-25T08:39:00.682Z,95841.72
2023-01-25T08:41:29.161Z,95851.53
2023-01-25T08:43:56.905Z,95842.13
2023-01-25T08:46:28.655Z,95838.56
2023-01-25T08:48:57.985Z,95821.47
2023-01-25T08:51:25.902Z,95830.97
2023-01-25T08:53:52.952Z,95838.28
2023-01-25T08:56:20.918Z,95833.41
2023-01-25T08:58:49.737Z,95828.97
2023-01-25T09:01:19.111Z,95840.56
2023-01-25T09:03:47.719Z,95837.59
2023-01-25T09:06:15.349Z,95848.06
2023-01-25T09:08:43.316Z,95829.44
2023-01-25T09:11:12.842Z,95849.50
2023-01-25T09:13:44.015Z,95833.06
2023-01-25T09:16:22.843Z,95827.66
2023-01-25T09:18:50.957Z,95814.16
2023-01-25T09:21:19.402Z,95827.78
2023-01-25T09:23:57.668Z,95840.81
2023-01-25T09:26:33.044Z,95805.25
2023-01-25T09:29:00.405Z,95813.19
2023-01-25T09:31:30.493Z,95819.97
2023-01-25T09:34:32.431Z,95813.00
2023-01-25T09:36:59.486Z,95823.09
2023-01-25T09:39:26.295Z,95832.91
2023-01-25T09:42:35.476Z,95811.78
2023-01-25T09:45:21.730Z,95803.00
2023-01-25T09:48:30.275Z,95814.81
2023-01-25T09:51:18.346Z,95819.19
2023-01-25T09:53:54.223Z,95803.97
2023-01-25T09:56:30.682Z,95812.28
2023-01-25T09:59:05.611Z,95810.41
2023-01-25T10:01:55.854Z,95811.94
2023-01-25T10:04:26.893Z,95815.56
2023-01-25T10:07:02.109Z,95788.97
2023-01-25T10:09:40.949Z,95798.84
2023-01-25T10:12:25.790Z,95781.03
2023-01-25T10:14:53.435Z,95806.81
2023-01-25T10:17:37.440Z,95813.94
2023-01-25T10:20:13.052Z,95789.88
2023-01-25T10:23:06.047Z,95773.13
2023-01-25T10:25:41.682Z,95781.75
2023-01-25T10:28:32.595Z,95776.50
2023-01-25T10:31:22.311Z,95749.72
2023-01-25T10:33:49.834Z,95781.75
2023-01-25T10:36:25.467Z,95775.19
2023-01-25T10:38:59.147Z,95782.69
2023-01-25T10:41:47.495Z,95784.81
2023-01-25T10:44:24.773Z,95769.75
2023-01-25T10:47:09.901Z,95747.66
2023-01-25T10:49:43.611Z,95772.81
2023-01-25T10:52:15.531Z,95756.25
2023-01-25T10:54:43.102Z,95760.66
2023-01-25T10:57:22.988Z,95756.50
2023-01-25T10:59:52.949Z,95747.81
2023-01-25T11:02:42.057Z,95751.94
2023-01-25T11:05:28.061Z,95751.34
2023-01-25T11:07:54.968Z,95702.88
2023-01-25T11:10:28.179Z,95710.59
2023-01-25T11:13:33.200Z,95719.03
2023-01-25T11:15:59.953Z,95734.78
2023-01-25T11:18:33.675Z,95717.19
2023-01-25T11:21:18.456Z,95716.16
2023-01-25T11:24:11.549Z,95704.66
2023-01-25T11:26:41.019Z,95704.38
2023-01-25T11:29:18.234Z,95702.31
2023-01-25T11:31:54.012Z,95714.63
2023-01-25T11:34:28.548Z,95710.75
2023-01-25T11:37:16.981Z,95701.97
2023-01-25T11:40:22.356Z,95679.88
2023-01-25T11:43:13.538Z,95690.72
2023-01-25T11:46:01.943Z,95682.66
2023-01-25T11:48:28.814Z,95681.81
2023-01-25T11:51:41.790Z,95671.59
2023-01-25T11:54:26.836Z,95661.56
2023-01-25T11:57:00.895Z,95659.81
2023-01-25T12:00:03.734Z,95644.38
2023-01-25T12:02:59.437Z,95618.03
2023-01-25T12:05:40.181Z,95610.34
2023-01-25T12:08:12.954Z,95586.59
2023-01-25T12:11:02.214Z,95583.44
2023-01-25T12:13:49.430Z,95581.63
2023-01-25T12:16:42.044Z,95574.44
2023-01-25T12:19:21.033Z,95577.13
2023-01-25T12:22:02.886Z,95572.34
2023-01-25T12:24:44.816Z,95560.59
2023-01-25T12:27:40.834Z,95569.78
2023-01-25T12:30:34.053Z,95575.63
2023-01-25T12:33:14.322Z,95575.69
2023-01-25T12:35:44.919Z,95570.19
2023-01-25T12:38:48.022Z,95567.66
2023-01-25T12:41:31.250Z,95579.66
2023-01-25T12:44:26.117Z,95583.91
2023-01-25T12:47:05.359Z,95583.94
2023-01-25T12:49:55.938Z,95565.53
2023-01-25T12:52:42.400Z,95577.22
2023-01-25T12:55:17.802Z,95569.78
2023-01-25T12:57:55.199Z,95582.72
2023-01-25T13:01:03.647Z,95576.78
2023-01-25T13:03:48.386Z,95559.38
2023-01-25T13:06:37.411Z,95551.75
2023-01-25T13:09:16.238Z,95545.09
2023-01-25T13:11:45.891Z,95547.75
2023-01-25T13:14:15.772Z,95546.44
2023-01-25T13:16:53.917Z,95540.81
2023-01-25T13:19:31.076Z,95534.75
2023-01-25T13:22:00.165Z,95533.44
2023-01-25T13:24:32.781Z,95530.50
2023-01-25T13:27:01.967Z,95536.75
2023-01-25T13:29:45.872Z,95539.84
2023-01-25T13:32:36.307Z,95560.63
2023-01-25T13:35:03.225Z,95550.78
2023-01-25T13:37:34.649Z,95562.03
2023-01-25T13:40:23.354Z,95542.31
2023-01-25T13:43:19.082Z,95544.88
2023-01-25T13:45:50.482Z,95536.94
2023-01-25T13:48:23.265Z,95540.94
2023-01-25T13:51:02.144Z,95551.28
2023-01-25T13:53:35.437Z,95546.66
2023-01-25T13:56:03.158Z,95541.16
2023-01-25T13:58:36.978Z,95527.38
2023-01-25T14:01:08.402Z,95522.00
2023-01-25T14:03:36.912Z,95531.03
2023-01-25T14:06:04.509Z,95530.97
2023-01-25T14:08:32.281Z,95538.78
2023-01-25T14:10:59.778Z,95539.06
2023-01-25T14:13:26.784Z,95527.34
2023-01-25T14:15:56.413Z,95532.16
2023-01-25T14:18:30.831Z,95543.69
2023-01-25T14:21:13.195Z,95551.13
2023-01-25T14:23:40.129Z,95540.53
2023-01-25T14:26:25.799Z,95532.50
2023-01-25T14:29:02.012Z,95531.28
2023-01-25T14:31:37.190Z,95526.81
2023-01-25T14:34:06.194Z,95516.94
2023-01-25T14:36:34.807Z,95485.28
2023-01-25T14:39:04.450Z,95505.09
2023-01-25T14:41:59.234Z,95496.59
2023-01-25T14:44:29.341Z,95482.09
2023-01-25T14:47:32.274Z,95497.16
2023-01-25T14:50:34.408Z,95494.59
2023-01-25T14:53:23.598Z,95483.59
2023-01-25T14:55:51.350Z,95487.81
2023-01-25T14:58:29.360Z,95489.59
2023-01-25T15:00:59.972Z,95466.94
2023-01-25T15:03:29.415Z,95483.59
2023-01-25T15:06:01.326Z,95496.44
2023-01-25T15:08:30.797Z,95487.56
2023-01-25T15:11:19.177Z,95482.19
2023-01-25T15:13:46.035Z,95493.41
2023-01-25T15:16:13.343Z,95482.66
2023-01-25T15:18:54.811Z,95481.03
2023-01-25T15:21:26.750Z,95494.53
2023-01-25T15:23:56.239Z,95502.81
2023-01-25T15:26:28.835Z,95486.41
2023-01-25T15:29:00.925Z,95483.88
2023-01-25T15:31:29.455Z,95470.31
2023-01-25T15:33:57.601Z,95477.88
2023-01-25T15:36:24.860Z,95475.94
2023-01-25T15:38:52.773Z,95472.69
2023-01-25T15:41:19.991Z,95461.75
2023-01-25T15:43:48.511Z,95461.00
2023-01-25T15:46:20.351Z,95476.00
2023-01-25T15:48:49.593Z,95462.91
2023-01-25T15:51:16.811Z,95470.16
2023-01-25T15:53:43.564Z,95455.81
2023-01-25T15:56:17.730Z,95476.03
2023-01-25T15:58:49.899Z,95451.56
2023-01-25T16:01:16.752Z,95462.34
2023-01-25T16:03:43.510Z,95460.66
2023-01-25T16:06:25.172Z,95465.84
2023-01-25T16:08:51.974Z,95450.56
2023-01-25T16:11:18.705Z,95477.72
2023-01-25T16:13:45.457Z,95480.81
2023-01-25T16:16:24.363Z,95459.09
2023-01-25T16:18:51.071Z,95454.72
2023-01-25T16:21:18.257Z,95452.47
2023-01-25T16:23:45.590Z,95445.19
2023-01-25T16:26:19.745Z,95463.34
2023-01-25T16:28:46.719Z,95452.69
2023-01-25T16:31:30.267Z,95454.78
2023-01-25T16:33:58.712Z,95436.16
2023-01-25T16:36:25.801Z,95432.47
2023-01-25T16:38:52.701Z,95432.75
2023-01-25T16:41:19.926Z,95437.81
2023-01-25T16:43:48.286Z,95432.06
2023-01-25T16:46:17.714Z,95444.97
2023-01-25T16:48:45.880Z,95442.88
2023-01-25T16:51:32.463Z,95461.16
2023-01-25T16:53:59.551Z,95449.28
2023-01-25T16:56:28.685Z,95446.19
2023-01-25T16:58:57.791Z,95442.97
2023-01-25T17:01:25.553Z,95444.78
2023-01-25T17:03:52.414Z,95444.22
2023-01-25T17:06:32.104Z,95424.84
2023-01-25T17:09:09.399Z,95423.31
2023-01-25T17:11:40.609Z,95432.53
2023-01-25T17:14:07.932Z,95404.06
2023-01-25T17:16:35.381Z,95413.44
2023-01-25T17:19:05.491Z,95419.00
2023-01-25T17:21:33.148Z,95408.22
2023-01-25T17:24:01.424Z,95387.44
2023-01-25T17:26:30.406Z,95396.75
2023-01-25T17:29:00.317Z,95402.25
2023-01-25T17:31:31.223Z,95405.53
2023-01-25T17:34:02.015Z,95396.56
2023-01-25T17:36:29.361Z,95374.91
2023-01-25T17:38:56.217Z,95388.66
2023-01-25T17:41:23.032Z,95384.78
2023-01-25T17:43:53.100Z,95378.06
2023-01-25T17:46:29.957Z,95373.81
2023-01-25T17:48:57.443Z,95383.09
2023-01-25T17:51:26.489Z,95381.53
2023-01-25T17:53:54.331Z,95378.81
2023-01-25T17:56:21.497Z,95374.03
2023-01-25T17:58:48.323Z,95364.22
2023-01-25T18:01:23.494Z,95339.06
2023-01-25T18:03:52.113Z,95345.75
2023-01-25T18:06:22.076Z,95344.69
2023-01-25T18:08:52.028Z,95360.81
2023-01-25T18:11:21.825Z,95340.66
2023-01-25T18:13:51.865Z,95345.66
2023-01-25T18:16:23.569Z,95351.34
2023-01-25T18:18:52.362Z,95350.53
2023-01-25T18:21:24.626Z,95326.16
2023-01-25T18:23:53.452Z,95322.94
2023-01-25T18:26:40.885Z,95339.03
2023-01-25T18:29:10.965Z,95307.56
2023-01-25T18:31:37.721Z,95316.75
2023-01-25T18:34:05.132Z,95329.03
2023-01-25T18:36:32.007Z,95320.16
2023-01-25T18:39:00.337Z,95312.38
2023-01-25T18:41:27.174Z,95322.06
2023-01-25T18:43:53.896Z,95330.56
2023-01-25T18:46:20.635Z,95326.00
2023-01-25T18:48:47.865Z,95301.28
2023-01-25T18:51:17.854Z,95295.34
2023-01-25T18:53:47.462Z,95314.69
2023-01-25T18:56:21.372Z,95321.47
2023-01-25T18:58:50.349Z,95327.22
2023-01-25T19:01:22.448Z,95335.25
2023-01-25T19:03:50.462Z,95335.13
2023-01-25T19:06:19.164Z,95308.84
2023-01-25T19:08:49.759Z,95307.78
2023-01-25T19:11:20.495Z,95303.19
2023-01-25T19:13:47.642Z,95300.94
2023-01-25T19:16:16.833Z,95307.50
2023-01-25T19:18:49.945Z,95304.84
2023-01-25T19:21:19.812Z,95305.50
2023-01-25T19:23:47.281Z,95292.00
2023-01-25T19:26:16.591Z,95297.91
2023-01-25T19:28:44.144Z,95300.38
2023-01-25T19:31:20.735Z,95294.94
2023-01-25T19:33:48.858Z,95274.34
2023-01-25T19:36:19.304Z,95273.44
2023-01-25T19:38:47.693Z,95266.84
2023-01-25T19:41:17.444Z,95252.72
2023-01-25T19:43:44.923Z,95264.94
2023-01-25T19:46:17.501Z,95264.50
2023-01-25T19:48:47.143Z,95260.78
2023-01-25T19:51:22.006Z,95256.81
2023-01-25T19:53:59.131Z,95259.41
2023-01-25T19:56:27.975Z,95248.44
2023-01-25T19:58:54.826Z,95251.38
2023-01-25T20:01:28.270Z,95255.81
2023-01-25T20:03:58.101Z,95260.81
2023-01-25T20:06:27.841Z,95259.19
2023-01-25T20:08:54.676Z,95243.38
2023-01-25T20:11:24.017Z,95233.41
2023-01-25T20:13:54.516Z,95241.38
2023-01-25T20:16:22.293Z,95248.50
2023-01-25T20:18:49.859Z,95243.97
2023-01-25T20:21:19.581Z,95226.53
2023-01-25T20:23:48.884Z,95211.88
2023-01-25T20:26:17.912Z,95228.34
2023-01-25T20:28:51.732Z,95220.34
2023-01-25T20:31:35.511Z,95230.88
2023-01-25T20:34:05.936Z,95242.25
2023-01-25T20:36:34.953Z,95239.63
2023-01-25T20:39:01.742Z,95225.41
2023-01-25T20:41:28.578Z,95218.69
2023-01-25T20:44:00.830Z,95236.22
2023-01-25T20:46:33.730Z,95225.47
2023-01-25T20:49:01.730Z,95213.56
2023-01-25T20:51:29.970Z,95229.03
2023-01-25T20:53:59.130Z,95210.16
2023-01-25T20:56:26.457Z,95221.66
2023-01-25T20:58:53.788Z,95201.22
2023-01-25T21:01:23.091Z,95201.81
2023-01-25T21:03:50.606Z,95199.22
2023-01-25T21:06:17.880Z,95203.06
2023-01-25T21:08:45.147Z,95183.41
2023-01-25T21:11:13.459Z,95185.00
2023-01-25T21:13:41.459Z,95194.09
2023-01-25T21:16:15.244Z,95198.59
2023-01-25T21:18:46.953Z,95206.59
2023-01-25T21:21:22.139Z,95211.28
2023-01-25T21:23:50.450Z,95205.34
2023-01-25T21:26:22.884Z,95204.94
2023-01-25T21:28:50.868Z,95193.19
2023-01-25T21:31:20.206Z,95202.06
2023-01-25T21:33:47.727Z,95188.69
2023-01-25T21:36:16.396Z,95186.91
2023-01-25T21:38:46.289Z,95164.00
2023-01-25T21:41:16.335Z,95184.94
2023-01-25T21:44:01.675Z,95174.38
2023-01-25T21:46:28.739Z,95184.81
2023-01-25T21:49:15.659Z,95167.16
2023-01-25T21:51:51.006Z,95182.63
2023-01-25T21:54:23.334Z,95186.19
2023-01-25T21:56:52.253Z,95177.69
2023-01-25T21:59:19.854Z,95177.00
2023-01-25T22:01:47.158Z,95187.81
2023-01-25T22:04:16.294Z,95175.25
2023-01-25T22:06:43.708Z,95148.41
2023-01-25T22:09:13.200Z,95147.97
2023-01-25T22:11:40.090Z,95148.88
2023-01-25T22:14:07.361Z,95147.47
2023-01-25T22:16:34.150Z,95155.06
2023-01-25T22:19:00.874Z,95150.03
2023-01-25T22:21:31.203Z,95151.63
2023-01-25T22:24:00.272Z,95158.66
2023-01-25T22:26:39.578Z,95155.22
2023-01-25T22:29:06.312Z,95145.28
2023-01-25T22:31:33.266Z,95140.66
2023-01-25T22:34:00.111Z,95137.72
2023-01-25T22:36:28.669Z,95133.28
2023-01-25T22:38:55.467Z,95133.91
2023-01-25T22:41:28.218Z,95148.56
2023-01-25T22:43:55.347Z,95120.91
2023-01-25T22:46:25.778Z,95113.75
2023-01-25T22:48:53.028Z,95119.63
2023-01-25T22:51:25.121Z,95119.06
2023-01-25T22:53:52.890Z,95118.47
2023-01-25T22:56:22.967Z,95097.94
2023-01-25T22:58:50.845Z,95113.97
2023-01-25T23:01:20.592Z,95122.03
2023-01-25T23:03:49.396Z,95118.75
2023-01-25T23:06:25.383Z,95111.59
2023-01-25T23:08:56.092Z,95092.72
2023-01-25T23:11:24.915Z,95104.28
2023-01-25T23:14:11.501Z,95101.28
2023-01-25T23:16:38.257Z,95110.19
2023-01-25T23:19:05.795Z,95096.94
2023-01-25T23:21:32.766Z,95085.31
2023-01-25T23:24:01.044Z,95091.72
2023-01-25T23:26:29.745Z,95105.50
2023-01-25T23:28:57.772Z,95098.75
2023-01-25T23:31:26.114Z,95089.75
2023-01-25T23:33:55.288Z,95076.16
2023-01-25T23:36:27.705Z,95076.03
2023-01-25T23:38:55.819Z,95081.13
2023-01-25T23:41:26.275Z,95070.34
2023-01-25T23:43:53.411Z,95070.88
2023-01-25T23:46:20.174Z,95073.97
2023-01-25T23:48:47.681Z,95063.63
2023-01-25T23:51:16.713Z,95045.69
2023-01-25T23:53:44.143Z,95060.88
2023-01-25T23:56:12.980Z,95067.38
2023-01-25T23:58:40.646Z,95054.03
